Decoded Metar for KUKF (WILKESBORO in NC, USA) (IATA:UKF) | Meteo·Mobile Aviation Weather
aviador You're here:

KUKF Decoded Metar

WILKESBORO in NC, USA
Report Time2018-12-14 08:20:00
UTC Time2018-12-14 08:49:37
Flight Rules vfr VFR
WindCalm
Visibility9999 m
Phenomena:N/A
Clouds:Scattered 027 Hf
Overcast 035 Hf
Expected CloudBase > 800 ft AGL from Temp-Dew spread
Ceiling3,500 ft
Temp02°C (ISA -10)
Dew Point00°C (87% RH)
AAT0.0°C
QNH1027 hPa
Density Alt-351 ft
Elevation1,299 ft
Report Wrong Elevation
Raw Report
METAR KUKF 140820Z AUTO 00000KT 10SM SCT027 OVC035 02/00 A3034 RMK
AO2=

Extra information for KUKF:More info

Metar Taf Metar & Taf Last 4 Metars F.Rules Stats Wind Profile Meteogram Temp Stats Airport Information Weather charts Add Link Nearby VenuesMetar ALERT Operation Metar Decoded Social comments

AIRNAV info for KUKF